Christos Xxxiii — SVA6631 — position and weather

sailwx.info

Track history (hours):
 
Tides and Currents Weather Stations Pressure Air Temp Water Temp Dewpoint Dewpoint Depression Visibility Wind Speed Wind Dir Waves Ship Positions

Christos Xxxiii

Last reported at 2018-Jun-23 23:20 UTC. Time now 2018-Jun-24 01:34 UTC.
Position N 37°24' E 024°44'.

Length 33 m; draft 5 m.

Type: Tug. MMSI: 241395000.

Date/timePositionNaut miles runAvg speedWind from/ knotsBaromVisibWave heightAir tempDewpointWater temp
2018-Jun-23 23:20N 37°24' E 024°44'2 5.2
2018-Jun-23 23:00N 37°23' E 024°46'3 5.4
2018-Jun-23 22:30N 37°22' E 024°49'3 5.8
2018-Jun-23 22:00N 37°21' E 024°52'3 6.0
2018-Jun-23 21:30N 37°21' E 024°56'3 6.1
2018-Jun-23 21:00N 37°21' E 024°60'5 6.3
2018-Jun-23 20:15N 37°21' E 025°06'1 6.1
2018-Jun-23 20:00N 37°21' E 025°08'3 6.2
2018-Jun-23 19:30N 37°21' E 025°12'3 6.2
2018-Jun-23 19:00N 37°21' E 025°16'3 6.0
2018-Jun-23 18:30N 37°22' E 025°19'3 5.9
2018-Jun-23 18:00N 37°23' E 025°23'3 5.4
2018-Jun-23 17:30N 37°24' E 025°26'1 2.7
2018-Jun-23 17:00N 37°26' E 025°26'1 1.5
2018-Jun-23 16:30N 37°26' E 025°26'3 6.7
2018-Jun-23 16:00N 37°24' E 025°23'5 9.4
2018-Jun-23 15:30N 37°23' E 025°17'5 9.4
2018-Jun-23 15:01N 37°28' E 025°19'0 0.3
2018-Jun-23 14:30N 37°28' E 025°20'0 0.0
2018-Jun-23 14:00N 37°28' E 025°20'0 0.0
2018-Jun-23 13:30N 37°28' E 025°20'0 0.0
2018-Jun-23 13:00N 37°28' E 025°20'0 0.5
2018-Jun-23 12:30N 37°28' E 025°19'0 0.1
2018-Jun-23 12:00N 37°28' E 025°19'3 5.0
2018-Jun-23 11:30N 37°28' E 025°16'510.2
2018-Jun-23 11:00N 37°29' E 025°10'510.4
2018-Jun-23 10:30N 37°30' E 025°03'610.2
2018-Jun-23 09:57N 37°31' E 024°56'510.1
2018-Jun-23 09:29N 37°32' E 024°50'510.0
2018-Jun-23 09:00N 37°31' E 024°44'4210.1
2018-Jun-23 04:52N 37°37' E 023°52'410.3
2018-Jun-23 04:30N 37°38' E 023°48'5 9.7
2018-Jun-23 04:00N 37°40' E 023°42'510.1
2018-Jun-23 03:30N 37°45' E 023°40'510.2
2018-Jun-23 03:00N 37°50' E 023°37'510.2
2018-Jun-23 02:30N 37°55' E 023°35'3 6.4
2018-Jun-23 02:00N 37°58' E 023°34'0 0.0
2018-Jun-23 01:30N 37°58' E 023°34'0 0.0
2018-Jun-23 01:00N 37°58' E 023°34'0 0.4
2018-Jun-23 00:30N 37°57' E 023°34'1 1.4
2018-Jun-23 00:00N 37°57' E 023°33'0 0.0
2018-Jun-22 23:30N 37°57' E 023°33'0 0.0
2018-Jun-22 23:00N 37°57' E 023°33'0 0.0
2018-Jun-22 22:30N 37°57' E 023°33'0 0.0
2018-Jun-22 22:00N 37°57' E 023°33'0 0.0
2018-Jun-22 21:30N 37°57' E 023°33'0 0.0
2018-Jun-22 21:00N 37°57' E 023°33'1 1.3
2018-Jun-22 20:30N 37°58' E 023°34'0 0.0
2018-Jun-22 20:00N 37°58' E 023°34'0 0.0
2018-Jun-22 19:30N 37°58' E 023°34'0 0.0
2018-Jun-22 19:00N 37°58' E 023°34'0 0.0
2018-Jun-22 18:30N 37°58' E 023°34'0 0.0
2018-Jun-22 18:00N 37°58' E 023°34'0 0.5
2018-Jun-22 17:30N 37°57' E 023°34'4 8.0
2018-Jun-22 17:00N 38°01' E 023°35'0 1.0
2018-Jun-22 16:30N 38°02' E 023°35'4 7.5
2018-Jun-22 16:00N 38°02' E 023°31'1 1.1
2018-Jun-22 15:31N 38°01' E 023°31'1 1.6
2018-Jun-22 15:01N 38°02' E 023°31'1 1.4
2018-Jun-22 14:30N 38°02' E 023°31'0 0.6
2018-Jun-22 14:00N 38°02' E 023°30'0 0.0
2018-Jun-22 13:30N 38°02' E 023°30'0 0.0
2018-Jun-22 13:00N 38°02' E 023°30'0 0.0
2018-Jun-22 12:30N 38°02' E 023°30'0 0.0
2018-Jun-22 12:00N 38°02' E 023°30'0 0.0
2018-Jun-22 11:30N 38°02' E 023°30'0 0.0
2018-Jun-22 11:00N 38°02' E 023°30'0 0.0
2018-Jun-22 10:30N 38°02' E 023°30'0 0.0
2018-Jun-22 10:00N 38°02' E 023°30'0 0.0
2018-Jun-22 09:30N 38°02' E 023°30'0 0.0
2018-Jun-22 09:00N 38°02' E 023°30'0 0.0
2018-Jun-22 08:30N 38°02' E 023°30'0 0.0
2018-Jun-22 08:00N 38°02' E 023°30'0 0.0
2018-Jun-22 07:30N 38°02' E 023°30'0 0.0
2018-Jun-22 07:00N 38°02' E 023°30'0 0.0
2018-Jun-22 06:30N 38°02' E 023°30'0 0.0
2018-Jun-22 06:00N 38°02' E 023°30'0 0.0
2018-Jun-22 05:30N 38°02' E 023°30'0 0.0
2018-Jun-22 05:00N 38°02' E 023°30'0 0.0
2018-Jun-22 04:30N 38°02' E 023°30'0 0.0
2018-Jun-22 04:00N 38°02' E 023°30'0 0.0
2018-Jun-22 03:30N 38°02' E 023°30'0 0.0
2018-Jun-22 03:00N 38°02' E 023°30'0 0.0
2018-Jun-22 02:30N 38°02' E 023°30'0 0.0
2018-Jun-22 02:00N 38°02' E 023°30'0 0.0
2018-Jun-22 01:30N 38°02' E 023°30'0 0.0
2018-Jun-22 01:00N 38°02' E 023°30'0 0.0
2018-Jun-22 00:30N 38°02' E 023°30'0 0.0
2018-Jun-22 00:00N 38°02' E 023°30'0 0.0
2018-Jun-21 23:30N 38°02' E 023°30'0 0.0
2018-Jun-21 23:00N 38°02' E 023°30'0 0.0
2018-Jun-21 22:30N 38°02' E 023°30'0 0.0
2018-Jun-21 22:00N 38°02' E 023°30'0 0.0
2018-Jun-21 21:30N 38°02' E 023°30'0 0.0
2018-Jun-21 21:00N 38°02' E 023°30'0 0.0
2018-Jun-21 20:30N 38°02' E 023°30'0 0.0
2018-Jun-21 20:00N 38°02' E 023°30'0 0.0
2018-Jun-21 19:30N 38°02' E 023°30'0 0.0
2018-Jun-21 19:00N 38°02' E 023°30'0 0.0
2018-Jun-21 18:30N 38°02' E 023°30'0 0.0
2018-Jun-21 18:00N 38°02' E 023°30'0 0.0
2018-Jun-21 17:30N 38°02' E 023°30'0 0.0
2018-Jun-21 17:00N 38°02' E 023°30'0 0.0
2018-Jun-21 16:30N 38°02' E 023°30'0 0.0
2018-Jun-21 16:00N 38°02' E 023°30'0 0.0
2018-Jun-21 15:30N 38°02' E 023°30'0 0.0
2018-Jun-21 15:00N 38°02' E 023°30'0 0.2
2018-Jun-21 14:30N 38°02' E 023°30'0 0.7
2018-Jun-21 14:01N 38°02' E 023°31'0 0.4
2018-Jun-21 13:31N 38°02' E 023°31'1 2.0
2018-Jun-21 13:00N 38°01' E 023°32'3 5.1
2018-Jun-21 12:30N 37°59' E 023°33'2 3.3
2018-Jun-21 12:00N 37°58' E 023°34'0 0.0
2018-Jun-21 11:30N 37°58' E 023°34'0 0.0
2018-Jun-21 11:00N 37°58' E 023°34'0 0.0
2018-Jun-21 10:30N 37°58' E 023°34'0 0.0
2018-Jun-21 10:00N 37°58' E 023°34'0 0.0
2018-Jun-21 09:30N 37°58' E 023°34'0 0.0
2018-Jun-21 09:00N 37°58' E 023°34'0 0.0
2018-Jun-21 08:30N 37°58' E 023°34'0 0.0
2018-Jun-21 08:00N 37°58' E 023°34'0 0.0
2018-Jun-21 07:30N 37°58' E 023°34'0 0.0
2018-Jun-21 07:00N 37°58' E 023°34'0 0.0
2018-Jun-21 06:30N 37°58' E 023°34'0 0.0
2018-Jun-21 06:00N 37°58' E 023°34'0 0.0
2018-Jun-21 05:30N 37°58' E 023°34'0 0.0
2018-Jun-21 05:00N 37°58' E 023°34'0 0.0
2018-Jun-21 04:30N 37°58' E 023°34'0 0.0
2018-Jun-21 04:00N 37°58' E 023°34'0 0.0
2018-Jun-21 03:30N 37°58' E 023°34'0 0.0
2018-Jun-19 00:15N 37°58' E 023°34'1 2.5
2018-Jun-19 00:00N 37°58' E 023°33'5 9.7
2018-Jun-18 23:30N 38°02' E 023°31'0 0.1
2018-Jun-18 23:00N 38°02' E 023°31'0 0.0
2018-Jun-18 22:30N 38°02' E 023°31'0 0.0
2018-Jun-18 22:00N 38°02' E 023°31'0 0.0
2018-Jun-18 21:30N 38°02' E 023°31'0 0.0
2018-Jun-18 21:00N 38°02' E 023°31'0 0.0
2018-Jun-18 20:30N 38°02' E 023°31'0 0.0
2018-Jun-18 20:00N 38°02' E 023°31'0 0.0
2018-Jun-18 19:30N 38°02' E 023°31'0 0.0
2018-Jun-18 19:00N 38°02' E 023°31'0 0.0
2018-Jun-18 18:30N 38°02' E 023°31'0 0.0
2018-Jun-18 18:00N 38°02' E 023°31'0 0.0
2018-Jun-18 17:30N 38°02' E 023°31'0 0.6
2018-Jun-18 17:00N 38°02' E 023°30'0 0.0
2018-Jun-18 16:29N 38°02' E 023°30'0 0.0
2018-Jun-18 16:00N 38°02' E 023°30'0 0.0
2018-Jun-18 15:30N 38°02' E 023°30'0 0.0
2018-Jun-18 15:00N 38°02' E 023°30'0 0.0
2018-Jun-18 14:30N 38°02' E 023°30'0 0.0
2018-Jun-18 14:00N 38°02' E 023°30'0 0.0
2018-Jun-18 13:30N 38°02' E 023°30'0 0.0
2018-Jun-18 13:00N 38°02' E 023°30'0 0.3
2018-Jun-18 12:30N 38°02' E 023°31'0 0.9
2018-Jun-18 12:00N 38°02' E 023°31'1 1.1
2018-Jun-18 11:30N 38°02' E 023°30'0 0.0
2018-Jun-18 11:00N 38°02' E 023°30'0 0.6
2018-Jun-18 10:30N 38°02' E 023°31'0 0.9
2018-Jun-18 10:00N 38°02' E 023°31'1 2.8
2018-Jun-18 09:30N 38°01' E 023°32'0 0.2
2018-Jun-18 09:00N 38°00' E 023°32'3 5.4
2018-Jun-18 08:30N 38°01' E 023°35'0 0.4
2018-Jun-18 08:00N 38°01' E 023°35'0 0.0
2018-Jun-18 07:30N 38°01' E 023°36'0 0.0
2018-Jun-18 07:00N 38°01' E 023°36'0 0.0
2018-Jun-18 06:30N 38°01' E 023°36'0 0.3
2018-Jun-18 06:00N 38°01' E 023°36'0 0.3
2018-Jun-18 05:30N 38°01' E 023°36'0 0.0
2018-Jun-18 05:00N 38°01' E 023°36'0 0.0
2018-Jun-18 04:30N 38°01' E 023°36'0 0.0
2018-Jun-18 04:00N 38°01' E 023°36'0 0.0
2018-Jun-18 03:30N 38°01' E 023°36'0 0.0
2018-Jun-18 03:00N 38°01' E 023°36'0 0.0
2018-Jun-18 02:30N 38°01' E 023°36'0 0.0
2018-Jun-18 02:00N 38°01' E 023°36'0 0.0
2018-Jun-18 01:30N 38°01' E 023°36'0 0.0
2018-Jun-18 01:00N 38°01' E 023°36'0 0.0
2018-Jun-18 00:30N 38°01' E 023°36'0 0.0
2018-Jun-18 00:00N 38°01' E 023°36'0 0.0
2018-Jun-17 23:30N 38°01' E 023°36'0 0.0
2018-Jun-17 23:00N 38°01' E 023°36'0 0.0
2018-Jun-17 22:30N 38°01' E 023°36'0 0.0
2018-Jun-17 22:00N 38°01' E 023°36'0 0.0
2018-Jun-17 21:30N 38°01' E 023°36'0 0.0
2018-Jun-17 21:00N 38°01' E 023°36'0 0.0
2018-Jun-17 20:30N 38°01' E 023°36'0 0.0
2018-Jun-17 20:00N 38°01' E 023°36'0 0.0
2018-Jun-17 19:30N 38°01' E 023°36'0 0.0
2018-Jun-17 19:00N 38°01' E 023°36'0 0.0
2018-Jun-17 18:30N 38°01' E 023°36'0 0.0
2018-Jun-17 18:00N 38°01' E 023°36'0 0.0
2018-Jun-17 17:31N 38°01' E 023°36'0 0.0
2018-Jun-17 17:00N 38°01' E 023°36'0 0.0
2018-Jun-17 16:30N 38°01' E 023°36'0 0.0
2018-Jun-17 16:00N 38°01' E 023°36'0 0.0
2018-Jun-17 15:30N 38°01' E 023°36'0 0.0
2018-Jun-17 15:00N 38°01' E 023°36'0 0.0
2018-Jun-17 14:30N 38°01' E 023°36'0 0.0
2018-Jun-17 14:00N 38°01' E 023°36'0 0.0
2018-Jun-17 13:30N 38°01' E 023°36'0 0.0
2018-Jun-17 13:00N 38°01' E 023°36'0 0.0
2018-Jun-17 12:30N 38°01' E 023°36'0 0.0
2018-Jun-17 12:00N 38°01' E 023°36'0 0.0
2018-Jun-17 11:30N 38°01' E 023°36'0 0.0
2018-Jun-17 11:00N 38°01' E 023°36'0 0.0
2018-Jun-17 10:30N 38°01' E 023°36'0 0.0
2018-Jun-17 10:00N 38°01' E 023°36'0 0.0
2018-Jun-17 09:31N 38°01' E 023°36'0 0.0
2018-Jun-17 09:00N 38°01' E 023°36'0 0.0
2018-Jun-17 08:30N 38°01' E 023°36'0 0.0
2018-Jun-17 08:00N 38°01' E 023°36'0 0.0
2018-Jun-17 07:30N 38°01' E 023°36'0 0.0
2018-Jun-17 07:00N 38°01' E 023°36'3 6.3
2018-Jun-17 06:30N 37°59' E 023°33'2 3.3
2018-Jun-17 06:00N 37°57' E 023°34'1 2.7
2018-Jun-17 05:30N 37°57' E 023°35'1 2.9
2018-Jun-17 05:00N 37°56' E 023°35'2 3.9
2018-Jun-17 04:30N 37°58' E 023°34'0 0.0
2018-Jun-17 04:00N 37°58' E 023°34'0 0.0
2018-Jun-17 03:30N 37°58' E 023°34'0 0.0
2018-Jun-17 03:00N 37°58' E 023°34'0 0.0
2018-Jun-17 02:30N 37°58' E 023°34'0 0.0
2018-Jun-17 02:00N 37°58' E 023°34'0 0.0
2018-Jun-17 01:30N 37°58' E 023°34'0 0.0
2018-Jun-17 01:00N 37°58' E 023°34'0 0.0
2018-Jun-17 00:30N 37°58' E 023°34'0 0.0
2018-Jun-17 00:00N 37°58' E 023°34'0 0.0
2018-Jun-16 23:30N 37°58' E 023°34'1 2.2
2018-Jun-16 23:00N 37°57' E 023°35'0 0.6
2018-Jun-16 22:30N 37°57' E 023°35'0 0.0
2018-Jun-16 22:00N 37°57' E 023°35'0 0.4
2018-Jun-16 21:30N 37°57' E 023°35'1 1.7
2018-Jun-16 21:00N 37°56' E 023°35'1 1.9
2018-Jun-16 20:30N 37°57' E 023°35'1 2.5
2018-Jun-16 20:00N 37°56' E 023°35'1 2.4
2018-Jun-16 19:31N 37°57' E 023°35'1 2.8
2018-Jun-16 19:00N 37°58' E 023°34'0 0.0
2018-Jun-16 18:30N 37°58' E 023°34'0 0.0
2018-Jun-16 18:00N 37°58' E 023°34'0 0.0
2018-Jun-16 17:30N 37°58' E 023°34'0 0.0
2018-Jun-16 17:00N 37°58' E 023°34'0 0.0
2018-Jun-16 16:30N 37°58' E 023°34'0 0.0
2018-Jun-16 16:00N 37°58' E 023°34'0 0.0
2018-Jun-16 15:30N 37°58' E 023°34'0 0.1
2018-Jun-16 15:00N 37°58' E 023°34'0 0.1
2018-Jun-16 14:30N 37°58' E 023°34'0 0.0
2018-Jun-16 14:00N 37°58' E 023°34'0 0.0
2018-Jun-16 13:30N 37°58' E 023°34'0 0.9
2018-Jun-16 13:00N 37°57' E 023°33'0 0.5
2018-Jun-16 12:30N 37°57' E 023°33'0 0.2
2018-Jun-16 12:00N 37°58' E 023°34'2 4.0
2018-Jun-16 11:30N 37°60' E 023°33'3 5.7
2018-Jun-16 11:00N 38°01' E 023°36'1 2.0
2018-Jun-16 10:30N 38°01' E 023°35'1 2.1
2018-Jun-16 10:00N 38°00' E 023°33'0 0.6
2018-Jun-16 09:30N 38°00' E 023°34'2 3.6
2018-Jun-16 09:00N 38°02' E 023°36'0 0.3
2018-Jun-16 08:30N 38°01' E 023°35'0 0.0
2018-Jun-16 08:00N 38°01' E 023°35'0 0.0
2018-Jun-16 07:30N 38°01' E 023°35'0 0.0
2018-Jun-16 07:00N 38°01' E 023°35'0 0.0
2018-Jun-16 06:30N 38°01' E 023°35'1 1.2
2018-Jun-16 06:00N 38°01' E 023°35'4 7.8
2018-Jun-16 05:30N 37°57' E 023°34'1 1.9
2018-Jun-16 05:00N 37°56' E 023°35'1 1.0
2018-Jun-16 04:30N 37°56' E 023°35'2 3.9
2018-Jun-16 04:00N 37°58' E 023°34'0 0.0
2018-Jun-16 03:30N 37°58' E 023°34'0 0.0
2018-Jun-16 03:00N 37°58' E 023°34'0 0.0
2018-Jun-16 02:30N 37°58' E 023°34'0 0.0
2018-Jun-15 04:31N 37°58' E 023°34'1 2.6
2018-Jun-15 04:01N 37°57' E 023°35'1 1.1
2018-Jun-15 03:30N 37°57' E 023°36'0 0.6
2018-Jun-15 03:00N 37°57' E 023°36'0 0.0
2018-Jun-15 02:30N 37°57' E 023°36'0 0.0
2018-Jun-15 02:01N 37°57' E 023°36'0 0.0
2018-Jun-15 01:31N 37°57' E 023°36'0 0.0
2018-Jun-15 01:00N 37°57' E 023°36'0 0.0
2018-Jun-15 00:31N 37°57' E 023°36'0 0.8
2018-Jun-15 00:01N 37°57' E 023°36'2 3.8
2018-Jun-14 23:31N 37°55' E 023°37'1 1.8
2018-Jun-14 23:01N 37°56' E 023°36'1 1.6
2018-Jun-14 22:31N 37°57' E 023°36'0 0.0
2018-Jun-14 22:00N 37°57' E 023°36'0 0.0
2018-Jun-14 21:31N 37°57' E 023°36'0 0.4
2018-Jun-14 21:00N 37°57' E 023°36'1 1.2
2018-Jun-14 20:30N 37°57' E 023°36'1 2.0
2018-Jun-14 20:00N 37°57' E 023°35'1 2.2
2018-Jun-14 19:30N 37°58' E 023°34'0 0.0
2018-Jun-14 19:01N 37°58' E 023°34'0 0.0
2018-Jun-14 18:30N 37°58' E 023°34'0 0.0
2018-Jun-14 18:00N 37°58' E 023°34'0 0.0
2018-Jun-14 17:30N 37°58' E 023°34'0 0.0
2018-Jun-14 17:01N 37°58' E 023°34'0 0.0
2018-Jun-14 16:30N 37°58' E 023°34'0 0.1
2018-Jun-14 16:01N 37°58' E 023°34'0 0.1
2018-Jun-14 15:31N 37°58' E 023°34'0 0.0
2018-Jun-14 15:01N 37°58' E 023°34'0 0.0
2018-Jun-14 14:31N 37°58' E 023°34'0 0.0
2018-Jun-14 14:01N 37°58' E 023°34'0 0.0
2018-Jun-14 13:30N 37°58' E 023°34'0 0.0
2018-Jun-14 13:01N 37°58' E 023°34'0 0.0
2018-Jun-14 12:30N 37°58' E 023°34'0 0.6
2018-Jun-14 12:01N 37°57' E 023°33'0 0.6
2018-Jun-14 11:31N 37°57' E 023°33'1 1.3
2018-Jun-14 11:01N 37°58' E 023°34'0 0.1
2018-Jun-14 10:31N 37°58' E 023°34'0 0.0
2018-Jun-14 10:01N 37°58' E 023°34'  
Track history (hours):
 
Tides and Currents Weather Stations Pressure Air Temp Water Temp Dewpoint Dewpoint Depression Visibility Wind Speed Wind Dir Waves Ship Positions

Christos Xxxiii

Last reported at 2018-Jun-23 23:20 UTC. Time now 2018-Jun-24 01:34 UTC.
Position N 37°24' E 024°44'.

Length 33 m; draft 5 m.

Type: Tug. MMSI: 241395000.

Date/timePositionNaut miles runAvg speedWind from/ knotsBaromVisibWave heightAir tempDewpointWater temp
2018-Jun-23 23:20N 37°24' E 024°44'2 5.2
2018-Jun-23 23:00N 37°23' E 024°46'3 5.4
2018-Jun-23 22:30N 37°22' E 024°49'3 5.8
2018-Jun-23 22:00N 37°21' E 024°52'3 6.0
2018-Jun-23 21:30N 37°21' E 024°56'3 6.1
2018-Jun-23 21:00N 37°21' E 024°60'5 6.3
2018-Jun-23 20:15N 37°21' E 025°06'1 6.1
2018-Jun-23 20:00N 37°21' E 025°08'3 6.2
2018-Jun-23 19:30N 37°21' E 025°12'3 6.2
2018-Jun-23 19:00N 37°21' E 025°16'3 6.0
2018-Jun-23 18:30N 37°22' E 025°19'3 5.9
2018-Jun-23 18:00N 37°23' E 025°23'3 5.4
2018-Jun-23 17:30N 37°24' E 025°26'1 2.7
2018-Jun-23 17:00N 37°26' E 025°26'1 1.5
2018-Jun-23 16:30N 37°26' E 025°26'3 6.7
2018-Jun-23 16:00N 37°24' E 025°23'5 9.4
2018-Jun-23 15:30N 37°23' E 025°17'5 9.4
2018-Jun-23 15:01N 37°28' E 025°19'0 0.3
2018-Jun-23 14:30N 37°28' E 025°20'0 0.0
2018-Jun-23 14:00N 37°28' E 025°20'0 0.0
2018-Jun-23 13:30N 37°28' E 025°20'0 0.0
2018-Jun-23 13:00N 37°28' E 025°20'0 0.5
2018-Jun-23 12:30N 37°28' E 025°19'0 0.1
2018-Jun-23 12:00N 37°28' E 025°19'3 5.0
2018-Jun-23 11:30N 37°28' E 025°16'510.2
2018-Jun-23 11:00N 37°29' E 025°10'510.4
2018-Jun-23 10:30N 37°30' E 025°03'610.2
2018-Jun-23 09:57N 37°31' E 024°56'510.1
2018-Jun-23 09:29N 37°32' E 024°50'510.0
2018-Jun-23 09:00N 37°31' E 024°44'4210.1
2018-Jun-23 04:52N 37°37' E 023°52'410.3
2018-Jun-23 04:30N 37°38' E 023°48'5 9.7
2018-Jun-23 04:00N 37°40' E 023°42'510.1
2018-Jun-23 03:30N 37°45' E 023°40'510.2
2018-Jun-23 03:00N 37°50' E 023°37'510.2
2018-Jun-23 02:30N 37°55' E 023°35'3 6.4
2018-Jun-23 02:00N 37°58' E 023°34'0 0.0
2018-Jun-23 01:30N 37°58' E 023°34'0 0.0
2018-Jun-23 01:00N 37°58' E 023°34'0 0.4
2018-Jun-23 00:30N 37°57' E 023°34'1 1.4
2018-Jun-23 00:00N 37°57' E 023°33'0 0.0
2018-Jun-22 23:30N 37°57' E 023°33'0 0.0
2018-Jun-22 23:00N 37°57' E 023°33'0 0.0
2018-Jun-22 22:30N 37°57' E 023°33'0 0.0
2018-Jun-22 22:00N 37°57' E 023°33'0 0.0
2018-Jun-22 21:30N 37°57' E 023°33'0 0.0
2018-Jun-22 21:00N 37°57' E 023°33'1 1.3
2018-Jun-22 20:30N 37°58' E 023°34'0 0.0
2018-Jun-22 20:00N 37°58' E 023°34'0 0.0
2018-Jun-22 19:30N 37°58' E 023°34'0 0.0
2018-Jun-22 19:00N 37°58' E 023°34'0 0.0
2018-Jun-22 18:30N 37°58' E 023°34'0 0.0
2018-Jun-22 18:00N 37°58' E 023°34'0 0.5
2018-Jun-22 17:30N 37°57' E 023°34'4 8.0
2018-Jun-22 17:00N 38°01' E 023°35'0 1.0
2018-Jun-22 16:30N 38°02' E 023°35'4 7.5
2018-Jun-22 16:00N 38°02' E 023°31'1 1.1
2018-Jun-22 15:31N 38°01' E 023°31'1 1.6
2018-Jun-22 15:01N 38°02' E 023°31'1 1.4
2018-Jun-22 14:30N 38°02' E 023°31'0 0.6
2018-Jun-22 14:00N 38°02' E 023°30'0 0.0
2018-Jun-22 13:30N 38°02' E 023°30'0 0.0
2018-Jun-22 13:00N 38°02' E 023°30'0 0.0
2018-Jun-22 12:30N 38°02' E 023°30'0 0.0
2018-Jun-22 12:00N 38°02' E 023°30'0 0.0
2018-Jun-22 11:30N 38°02' E 023°30'0 0.0
2018-Jun-22 11:00N 38°02' E 023°30'0 0.0
2018-Jun-22 10:30N 38°02' E 023°30'0 0.0
2018-Jun-22 10:00N 38°02' E 023°30'0 0.0
2018-Jun-22 09:30N 38°02' E 023°30'0 0.0
2018-Jun-22 09:00N 38°02' E 023°30'0 0.0
2018-Jun-22 08:30N 38°02' E 023°30'0 0.0
2018-Jun-22 08:00N 38°02' E 023°30'0 0.0
2018-Jun-22 07:30N 38°02' E 023°30'0 0.0
2018-Jun-22 07:00N 38°02' E 023°30'0 0.0
2018-Jun-22 06:30N 38°02' E 023°30'0 0.0
2018-Jun-22 06:00N 38°02' E 023°30'0 0.0
2018-Jun-22 05:30N 38°02' E 023°30'0 0.0
2018-Jun-22 05:00N 38°02' E 023°30'0 0.0
2018-Jun-22 04:30N 38°02' E 023°30'0 0.0
2018-Jun-22 04:00N 38°02' E 023°30'0 0.0
2018-Jun-22 03:30N 38°02' E 023°30'0 0.0
2018-Jun-22 03:00N 38°02' E 023°30'0 0.0
2018-Jun-22 02:30N 38°02' E 023°30'0 0.0
2018-Jun-22 02:00N 38°02' E 023°30'0 0.0
2018-Jun-22 01:30N 38°02' E 023°30'0 0.0
2018-Jun-22 01:00N 38°02' E 023°30'0 0.0
2018-Jun-22 00:30N 38°02' E 023°30'0 0.0
2018-Jun-22 00:00N 38°02' E 023°30'0 0.0
2018-Jun-21 23:30N 38°02' E 023°30'0 0.0
2018-Jun-21 23:00N 38°02' E 023°30'0 0.0
2018-Jun-21 22:30N 38°02' E 023°30'0 0.0
2018-Jun-21 22:00N 38°02' E 023°30'0 0.0
2018-Jun-21 21:30N 38°02' E 023°30'0 0.0
2018-Jun-21 21:00N 38°02' E 023°30'0 0.0
2018-Jun-21 20:30N 38°02' E 023°30'0 0.0
2018-Jun-21 20:00N 38°02' E 023°30'0 0.0
2018-Jun-21 19:30N 38°02' E 023°30'0 0.0
2018-Jun-21 19:00N 38°02' E 023°30'0 0.0
2018-Jun-21 18:30N 38°02' E 023°30'0 0.0
2018-Jun-21 18:00N 38°02' E 023°30'0 0.0
2018-Jun-21 17:30N 38°02' E 023°30'0 0.0
2018-Jun-21 17:00N 38°02' E 023°30'0 0.0
2018-Jun-21 16:30N 38°02' E 023°30'0 0.0
2018-Jun-21 16:00N 38°02' E 023°30'0 0.0
2018-Jun-21 15:30N 38°02' E 023°30'0 0.0
2018-Jun-21 15:00N 38°02' E 023°30'0 0.2
2018-Jun-21 14:30N 38°02' E 023°30'0 0.7
2018-Jun-21 14:01N 38°02' E 023°31'0 0.4
2018-Jun-21 13:31N 38°02' E 023°31'1 2.0
2018-Jun-21 13:00N 38°01' E 023°32'3 5.1
2018-Jun-21 12:30N 37°59' E 023°33'2 3.3
2018-Jun-21 12:00N 37°58' E 023°34'0 0.0
2018-Jun-21 11:30N 37°58' E 023°34'0 0.0
2018-Jun-21 11:00N 37°58' E 023°34'0 0.0
2018-Jun-21 10:30N 37°58' E 023°34'0 0.0
2018-Jun-21 10:00N 37°58' E 023°34'0 0.0
2018-Jun-21 09:30N 37°58' E 023°34'0 0.0
2018-Jun-21 09:00N 37°58' E 023°34'0 0.0
2018-Jun-21 08:30N 37°58' E 023°34'0 0.0
2018-Jun-21 08:00N 37°58' E 023°34'0 0.0
2018-Jun-21 07:30N 37°58' E 023°34'0 0.0
2018-Jun-21 07:00N 37°58' E 023°34'0 0.0
2018-Jun-21 06:30N 37°58' E 023°34'0 0.0
2018-Jun-21 06:00N 37°58' E 023°34'0 0.0
2018-Jun-21 05:30N 37°58' E 023°34'0 0.0
2018-Jun-21 05:00N 37°58' E 023°34'0 0.0
2018-Jun-21 04:30N 37°58' E 023°34'0 0.0
2018-Jun-21 04:00N 37°58' E 023°34'0 0.0
2018-Jun-21 03:30N 37°58' E 023°34'0 0.0
2018-Jun-19 00:15N 37°58' E 023°34'1 2.5
2018-Jun-19 00:00N 37°58' E 023°33'5 9.7
2018-Jun-18 23:30N 38°02' E 023°31'0 0.1
2018-Jun-18 23:00N 38°02' E 023°31'0 0.0
2018-Jun-18 22:30N 38°02' E 023°31'0 0.0
2018-Jun-18 22:00N 38°02' E 023°31'0 0.0
2018-Jun-18 21:30N 38°02' E 023°31'0 0.0
2018-Jun-18 21:00N 38°02' E 023°31'0 0.0
2018-Jun-18 20:30N 38°02' E 023°31'0 0.0
2018-Jun-18 20:00N 38°02' E 023°31'0 0.0
2018-Jun-18 19:30N 38°02' E 023°31'0 0.0
2018-Jun-18 19:00N 38°02' E 023°31'0 0.0
2018-Jun-18 18:30N 38°02' E 023°31'0 0.0
2018-Jun-18 18:00N 38°02' E 023°31'0 0.0
2018-Jun-18 17:30N 38°02' E 023°31'0 0.6
2018-Jun-18 17:00N 38°02' E 023°30'0 0.0
2018-Jun-18 16:29N 38°02' E 023°30'0 0.0
2018-Jun-18 16:00N 38°02' E 023°30'0 0.0
2018-Jun-18 15:30N 38°02' E 023°30'0 0.0
2018-Jun-18 15:00N 38°02' E 023°30'0 0.0
2018-Jun-18 14:30N 38°02' E 023°30'0 0.0
2018-Jun-18 14:00N 38°02' E 023°30'0 0.0
2018-Jun-18 13:30N 38°02' E 023°30'0 0.0
2018-Jun-18 13:00N 38°02' E 023°30'0 0.3
2018-Jun-18 12:30N 38°02' E 023°31'0 0.9
2018-Jun-18 12:00N 38°02' E 023°31'1 1.1
2018-Jun-18 11:30N 38°02' E 023°30'0 0.0
2018-Jun-18 11:00N 38°02' E 023°30'0 0.6
2018-Jun-18 10:30N 38°02' E 023°31'0 0.9
2018-Jun-18 10:00N 38°02' E 023°31'1 2.8
2018-Jun-18 09:30N 38°01' E 023°32'0 0.2
2018-Jun-18 09:00N 38°00' E 023°32'3 5.4
2018-Jun-18 08:30N 38°01' E 023°35'0 0.4
2018-Jun-18 08:00N 38°01' E 023°35'0 0.0
2018-Jun-18 07:30N 38°01' E 023°36'0 0.0
2018-Jun-18 07:00N 38°01' E 023°36'0 0.0
2018-Jun-18 06:30N 38°01' E 023°36'0 0.3
2018-Jun-18 06:00N 38°01' E 023°36'0 0.3
2018-Jun-18 05:30N 38°01' E 023°36'0 0.0
2018-Jun-18 05:00N 38°01' E 023°36'0 0.0
2018-Jun-18 04:30N 38°01' E 023°36'0 0.0
2018-Jun-18 04:00N 38°01' E 023°36'0 0.0
2018-Jun-18 03:30N 38°01' E 023°36'0 0.0
2018-Jun-18 03:00N 38°01' E 023°36'0 0.0
2018-Jun-18 02:30N 38°01' E 023°36'0 0.0
2018-Jun-18 02:00N 38°01' E 023°36'0 0.0
2018-Jun-18 01:30N 38°01' E 023°36'0 0.0
2018-Jun-18 01:00N 38°01' E 023°36'0 0.0
2018-Jun-18 00:30N 38°01' E 023°36'0 0.0
2018-Jun-18 00:00N 38°01' E 023°36'0 0.0
2018-Jun-17 23:30N 38°01' E 023°36'0 0.0
2018-Jun-17 23:00N 38°01' E 023°36'0 0.0
2018-Jun-17 22:30N 38°01' E 023°36'0 0.0
2018-Jun-17 22:00N 38°01' E 023°36'0 0.0
2018-Jun-17 21:30N 38°01' E 023°36'0 0.0
2018-Jun-17 21:00N 38°01' E 023°36'0 0.0
2018-Jun-17 20:30N 38°01' E 023°36'0 0.0
2018-Jun-17 20:00N 38°01' E 023°36'0 0.0
2018-Jun-17 19:30N 38°01' E 023°36'0 0.0
2018-Jun-17 19:00N 38°01' E 023°36'0 0.0
2018-Jun-17 18:30N 38°01' E 023°36'0 0.0
2018-Jun-17 18:00N 38°01' E 023°36'0 0.0
2018-Jun-17 17:31N 38°01' E 023°36'0 0.0
2018-Jun-17 17:00N 38°01' E 023°36'0 0.0
2018-Jun-17 16:30N 38°01' E 023°36'0 0.0
2018-Jun-17 16:00N 38°01' E 023°36'0 0.0
2018-Jun-17 15:30N 38°01' E 023°36'0 0.0
2018-Jun-17 15:00N 38°01' E 023°36'0 0.0
2018-Jun-17 14:30N 38°01' E 023°36'0 0.0
2018-Jun-17 14:00N 38°01' E 023°36'0 0.0
2018-Jun-17 13:30N 38°01' E 023°36'0 0.0
2018-Jun-17 13:00N 38°01' E 023°36'0 0.0
2018-Jun-17 12:30N 38°01' E 023°36'0 0.0
2018-Jun-17 12:00N 38°01' E 023°36'0 0.0
2018-Jun-17 11:30N 38°01' E 023°36'0 0.0
2018-Jun-17 11:00N 38°01' E 023°36'0 0.0
2018-Jun-17 10:30N 38°01' E 023°36'0 0.0
2018-Jun-17 10:00N 38°01' E 023°36'0 0.0
2018-Jun-17 09:31N 38°01' E 023°36'0 0.0
2018-Jun-17 09:00N 38°01' E 023°36'0 0.0
2018-Jun-17 08:30N 38°01' E 023°36'0 0.0
2018-Jun-17 08:00N 38°01' E 023°36'0 0.0
2018-Jun-17 07:30N 38°01' E 023°36'0 0.0
2018-Jun-17 07:00N 38°01' E 023°36'3 6.3
2018-Jun-17 06:30N 37°59' E 023°33'2 3.3
2018-Jun-17 06:00N 37°57' E 023°34'1 2.7
2018-Jun-17 05:30N 37°57' E 023°35'1 2.9
2018-Jun-17 05:00N 37°56' E 023°35'2 3.9
2018-Jun-17 04:30N 37°58' E 023°34'0 0.0
2018-Jun-17 04:00N 37°58' E 023°34'0 0.0
2018-Jun-17 03:30N 37°58' E 023°34'0 0.0
2018-Jun-17 03:00N 37°58' E 023°34'0 0.0
2018-Jun-17 02:30N 37°58' E 023°34'0 0.0
2018-Jun-17 02:00N 37°58' E 023°34'0 0.0
2018-Jun-17 01:30N 37°58' E 023°34'0 0.0
2018-Jun-17 01:00N 37°58' E 023°34'0 0.0
2018-Jun-17 00:30N 37°58' E 023°34'0 0.0
2018-Jun-17 00:00N 37°58' E 023°34'0 0.0
2018-Jun-16 23:30N 37°58' E 023°34'1 2.2
2018-Jun-16 23:00N 37°57' E 023°35'0 0.6
2018-Jun-16 22:30N 37°57' E 023°35'0 0.0
2018-Jun-16 22:00N 37°57' E 023°35'0 0.4
2018-Jun-16 21:30N 37°57' E 023°35'1 1.7
2018-Jun-16 21:00N 37°56' E 023°35'1 1.9
2018-Jun-16 20:30N 37°57' E 023°35'1 2.5
2018-Jun-16 20:00N 37°56' E 023°35'1 2.4
2018-Jun-16 19:31N 37°57' E 023°35'1 2.8
2018-Jun-16 19:00N 37°58' E 023°34'0 0.0
2018-Jun-16 18:30N 37°58' E 023°34'0 0.0
2018-Jun-16 18:00N 37°58' E 023°34'0 0.0
2018-Jun-16 17:30N 37°58' E 023°34'0 0.0
2018-Jun-16 17:00N 37°58' E 023°34'0 0.0
2018-Jun-16 16:30N 37°58' E 023°34'0 0.0
2018-Jun-16 16:00N 37°58' E 023°34'0 0.0
2018-Jun-16 15:30N 37°58' E 023°34'0 0.1
2018-Jun-16 15:00N 37°58' E 023°34'0 0.1
2018-Jun-16 14:30N 37°58' E 023°34'0 0.0
2018-Jun-16 14:00N 37°58' E 023°34'0 0.0
2018-Jun-16 13:30N 37°58' E 023°34'0 0.9
2018-Jun-16 13:00N 37°57' E 023°33'0 0.5
2018-Jun-16 12:30N 37°57' E 023°33'0 0.2
2018-Jun-16 12:00N 37°58' E 023°34'2 4.0
2018-Jun-16 11:30N 37°60' E 023°33'3 5.7
2018-Jun-16 11:00N 38°01' E 023°36'1 2.0
2018-Jun-16 10:30N 38°01' E 023°35'1 2.1
2018-Jun-16 10:00N 38°00' E 023°33'0 0.6
2018-Jun-16 09:30N 38°00' E 023°34'2 3.6
2018-Jun-16 09:00N 38°02' E 023°36'0 0.3
2018-Jun-16 08:30N 38°01' E 023°35'0 0.0
2018-Jun-16 08:00N 38°01' E 023°35'0 0.0
2018-Jun-16 07:30N 38°01' E 023°35'0 0.0
2018-Jun-16 07:00N 38°01' E 023°35'0 0.0
2018-Jun-16 06:30N 38°01' E 023°35'1 1.2
2018-Jun-16 06:00N 38°01' E 023°35'4 7.8
2018-Jun-16 05:30N 37°57' E 023°34'1 1.9
2018-Jun-16 05:00N 37°56' E 023°35'1 1.0
2018-Jun-16 04:30N 37°56' E 023°35'2 3.9
2018-Jun-16 04:00N 37°58' E 023°34'0 0.0
2018-Jun-16 03:30N 37°58' E 023°34'0 0.0
2018-Jun-16 03:00N 37°58' E 023°34'0 0.0
2018-Jun-16 02:30N 37°58' E 023°34'0 0.0
2018-Jun-15 04:31N 37°58' E 023°34'1 2.6
2018-Jun-15 04:01N 37°57' E 023°35'1 1.1
2018-Jun-15 03:30N 37°57' E 023°36'0 0.6
2018-Jun-15 03:00N 37°57' E 023°36'0 0.0
2018-Jun-15 02:30N 37°57' E 023°36'0 0.0
2018-Jun-15 02:01N 37°57' E 023°36'0 0.0
2018-Jun-15 01:31N 37°57' E 023°36'0 0.0
2018-Jun-15 01:00N 37°57' E 023°36'0 0.0
2018-Jun-15 00:31N 37°57' E 023°36'0 0.8
2018-Jun-15 00:01N 37°57' E 023°36'2 3.8
2018-Jun-14 23:31N 37°55' E 023°37'1 1.8
2018-Jun-14 23:01N 37°56' E 023°36'1 1.6
2018-Jun-14 22:31N 37°57' E 023°36'0 0.0
2018-Jun-14 22:00N 37°57' E 023°36'0 0.0
2018-Jun-14 21:31N 37°57' E 023°36'0 0.4
2018-Jun-14 21:00N 37°57' E 023°36'1 1.2
2018-Jun-14 20:30N 37°57' E 023°36'1 2.0
2018-Jun-14 20:00N 37°57' E 023°35'1 2.2
2018-Jun-14 19:30N 37°58' E 023°34'0 0.0
2018-Jun-14 19:01N 37°58' E 023°34'0 0.0
2018-Jun-14 18:30N 37°58' E 023°34'0 0.0
2018-Jun-14 18:00N 37°58' E 023°34'0 0.0
2018-Jun-14 17:30N 37°58' E 023°34'0 0.0
2018-Jun-14 17:01N 37°58' E 023°34'0 0.0
2018-Jun-14 16:30N 37°58' E 023°34'0 0.1
2018-Jun-14 16:01N 37°58' E 023°34'0 0.1
2018-Jun-14 15:31N 37°58' E 023°34'0 0.0
2018-Jun-14 15:01N 37°58' E 023°34'0 0.0
2018-Jun-14 14:31N 37°58' E 023°34'0 0.0
2018-Jun-14 14:01N 37°58' E 023°34'0 0.0
2018-Jun-14 13:30N 37°58' E 023°34'0 0.0
2018-Jun-14 13:01N 37°58' E 023°34'0 0.0
2018-Jun-14 12:30N 37°58' E 023°34'0 0.6
2018-Jun-14 12:01N 37°57' E 023°33'0 0.6
2018-Jun-14 11:31N 37°57' E 023°33'1 1.3
2018-Jun-14 11:01N 37°58' E 023°34'0 0.1
2018-Jun-14 10:31N 37°58' E 023°34'0 0.0
2018-Jun-14 10:01N 37°58' E 023°34'  

Dump ship's entire track history